Herrera, Argentina
Current Conditions -  °F | °C
As of 4:00 AM on Tuesday 21 Oct 2014 (Local Time) from SANT Reporting Station
Clear Clear  
Wind Chill: 63°   Ceiling: Unl
Heat Index: 63°   Visibility: 6mi
Dew Point: 59°   Wind: 9mph
Humidity: 88%   Direction: 360°N
Pressure: 30.03"   Gusts: NA
Location:  28.48°S, 63.07°W
Report Text: SANT 210700Z 36008KT 9999 NSC 17/15 Q1017
Loading
Personal Weather Stations






























Interactive Weather Map New forecast layout! Learn more

10-Day Weather Forecast

Advertisements
Track Severe Weather on mobile